createdAt,value
2019-02-25T00:00:59.384Z,147430.95
2019-02-25T00:02:04.784Z,147417.09
2019-02-25T00:03:10.400Z,147413.34
2019-02-25T00:04:16.266Z,147419.61
2019-02-25T00:05:22.159Z,147429.06
2019-02-25T00:06:28.109Z,147477.45
2019-02-25T00:07:34.156Z,147561.11
2019-02-25T00:08:40.110Z,147618.34
2019-02-25T00:09:46.033Z,147602.00
2019-02-25T00:10:52.034Z,147571.19
2019-02-25T00:11:57.981Z,147563.64
2019-02-25T00:13:03.906Z,147583.73
2019-02-25T00:14:09.691Z,147555.47
2019-02-25T00:15:15.606Z,147537.22
2019-02-25T00:16:21.489Z,147513.95
2019-02-25T00:17:27.406Z,147508.27
2019-02-25T00:18:33.319Z,147493.81
2019-02-25T00:19:39.223Z,147483.11
2019-02-25T00:20:45.167Z,147465.48
2019-02-25T00:21:51.085Z,147458.58
2019-02-25T00:22:57.024Z,147491.91
2019-02-25T00:24:02.961Z,147465.48
2019-02-25T00:25:08.919Z,147451.67
2019-02-25T00:26:14.842Z,147439.12
2019-02-25T00:27:21.803Z,147475.56
2019-02-25T00:28:27.747Z,147479.36
2019-02-25T00:29:33.645Z,147478.09
2019-02-25T00:30:39.607Z,147485.00
2019-02-25T00:31:45.541Z,147470.55
2019-02-25T00:32:51.469Z,147454.20
2019-02-25T00:33:57.399Z,147446.03
2019-02-25T00:35:02.979Z,147440.97
2019-02-25T00:36:09.587Z,147432.80
2019-02-25T00:37:15.904Z,147455.47
2019-02-25T00:38:21.826Z,147481.25
2019-02-25T00:39:27.814Z,147488.80
2019-02-25T00:40:33.708Z,147481.25
2019-02-25T00:41:40.302Z,147469.92
2019-02-25T00:42:46.240Z,147457.31
2019-02-25T00:43:52.189Z,147455.47
2019-02-25T00:44:58.103Z,147447.92
2019-02-25T00:46:04.021Z,147437.22
2019-02-25T00:47:09.978Z,147427.16
2019-02-25T00:48:15.907Z,147415.19
2019-02-25T00:49:21.847Z,147408.28
2019-02-25T00:50:27.779Z,147406.38
2019-02-25T00:51:33.729Z,147414.56
2019-02-25T00:52:39.731Z,147413.97
2019-02-25T00:53:45.666Z,147422.78
2019-02-25T00:54:51.613Z,147427.78
2019-02-25T00:55:57.590Z,147433.44
2019-02-25T00:57:03.676Z,147438.50
2019-02-25T00:58:09.962Z,147447.92
2019-02-25T00:59:16.539Z,147442.88
2019-02-25T01:00:21.790Z,147429.06
2019-02-25T01:01:27.702Z,147446.03
2019-02-25T01:02:33.719Z,147440.97
2019-02-25T01:03:39.679Z,147421.52
2019-02-25T01:04:45.625Z,147410.81
2019-02-25T01:05:51.258Z,147398.84
2019-02-25T01:06:56.800Z,147388.83
2019-02-25T01:08:02.366Z,147390.67
2019-02-25T01:09:07.990Z,147398.84
2019-02-25T01:10:13.848Z,147421.52
2019-02-25T01:11:19.766Z,147393.20
2019-02-25T01:12:25.712Z,147347.92
2019-02-25T01:13:31.598Z,147319.03
2019-02-25T01:14:37.520Z,147305.81
2019-02-25T01:15:43.454Z,147296.42
2019-02-25T01:16:49.331Z,147305.19
2019-02-25T01:17:56.096Z,147288.22
2019-02-25T01:19:02.528Z,147301.44
2019-02-25T01:20:08.587Z,147308.97
2019-02-25T01:21:14.183Z,147319.67
2019-02-25T01:22:20.098Z,147325.31
2019-02-25T01:23:26.036Z,147349.81
2019-02-25T01:24:31.950Z,147401.37
2019-02-25T01:25:37.889Z,147391.94
2019-02-25T01:26:43.819Z,147395.09
2019-02-25T01:27:49.789Z,147407.02
2019-02-25T01:28:55.740Z,147388.19
2019-02-25T01:30:01.679Z,147341.66
2019-02-25T01:31:07.651Z,147332.22
2019-02-25T01:32:13.571Z,147325.94
2019-02-25T01:33:19.576Z,147319.67
2019-02-25T01:34:25.593Z,147339.13
2019-02-25T01:35:31.522Z,147338.53
2019-02-25T01:36:37.480Z,147336.64
2019-02-25T01:37:43.405Z,147341.66
2019-02-25T01:38:49.344Z,147380.66
2019-02-25T01:39:55.280Z,147399.47
2019-02-25T01:41:01.231Z,147407.66
2019-02-25T01:42:07.157Z,147384.41
2019-02-25T01:43:13.165Z,147350.45
2019-02-25T01:44:19.066Z,147320.30
2019-02-25T01:45:24.619Z,147306.44
2019-02-25T01:46:30.646Z,147300.17
2019-02-25T01:47:36.573Z,147285.09
2019-02-25T01:48:42.498Z,147263.08
2019-02-25T01:49:48.479Z,147259.97
2019-02-25T01:50:54.437Z,147253.06
2019-02-25T01:52:00.361Z,147245.53
2019-02-25T01:53:06.073Z,147246.75
2019-02-25T01:54:11.638Z,147254.33
2019-02-25T01:55:17.603Z,147254.33
2019-02-25T01:56:23.587Z,147262.50
2019-02-25T01:57:29.509Z,147275.03
2019-02-25T01:58:36.859Z,147279.47
2019-02-25T01:59:42.738Z,147295.80
2019-02-25T02:00:49.348Z,147337.91
2019-02-25T02:01:55.780Z,147377.50
2019-02-25T02:03:01.386Z,147390.05
2019-02-25T02:04:07.279Z,147373.70
2019-02-25T02:05:13.332Z,147375.59
2019-02-25T02:06:19.266Z,147359.89
2019-02-25T02:07:25.196Z,147371.84
2019-02-25T02:08:31.200Z,147351.72
2019-02-25T02:09:37.083Z,147336.64
2019-02-25T02:10:43.033Z,147319.03
2019-02-25T02:11:48.973Z,147306.44
2019-02-25T02:12:54.898Z,147322.16
2019-02-25T02:14:00.833Z,147350.45
2019-02-25T02:15:10.665Z,147327.84
2019-02-25T02:16:16.603Z,147311.50
2019-02-25T02:17:22.502Z,147293.27
2019-02-25T02:18:28.495Z,147288.22
2019-02-25T02:19:34.456Z,147286.36
2019-02-25T02:20:40.401Z,147264.97
2019-02-25T02:21:46.347Z,147249.27
2019-02-25T02:22:52.611Z,147231.03
2019-02-25T02:23:58.556Z,147225.41
2019-02-25T02:25:04.126Z,147226.66
2019-02-25T02:26:09.669Z,147210.97
2019-02-25T02:27:15.696Z,147209.70
2019-02-25T02:28:21.686Z,147210.33
2019-02-25T02:29:27.614Z,147217.23
2019-02-25T02:30:33.544Z,147217.23
2019-02-25T02:31:39.504Z,147228.56
2019-02-25T02:32:45.031Z,147258.70
2019-02-25T02:33:51.001Z,147259.33
2019-02-25T02:34:56.897Z,147252.42
2019-02-25T02:36:02.805Z,147250.53
2019-02-25T02:37:08.754Z,147263.08
2019-02-25T02:38:14.661Z,147292.64
2019-02-25T02:39:20.634Z,147324.05
2019-02-25T02:40:26.592Z,147301.44
2019-02-25T02:41:31.830Z,147280.67
2019-02-25T02:42:37.760Z,147277.56
2019-02-25T02:43:43.705Z,147273.77
2019-02-25T02:44:49.574Z,147263.70
2019-02-25T02:45:56.529Z,147247.37
2019-02-25T02:47:11.534Z,147224.14
2019-02-25T02:48:26.761Z,147209.06
2019-02-25T02:49:32.718Z,147197.11
2019-02-25T02:50:38.660Z,147186.47
2019-02-25T02:51:44.600Z,147182.05
2019-02-25T02:52:50.195Z,147174.52
2019-02-25T02:53:56.163Z,147170.72
2019-02-25T02:55:02.100Z,147156.92
2019-02-25T02:56:08.060Z,147162.56
2019-02-25T02:57:13.995Z,147165.72
2019-02-25T02:58:19.910Z,147162.56
2019-02-25T02:59:25.844Z,147178.30
2019-02-25T03:00:31.395Z,147215.97
2019-02-25T03:01:37.369Z,147260.59
2019-02-25T03:02:43.365Z,147288.22
2019-02-25T03:03:49.759Z,147322.16
2019-02-25T03:04:56.165Z,147334.11
2019-02-25T03:06:02.082Z,147333.48
2019-02-25T03:07:08.013Z,147336.64
2019-02-25T03:08:13.987Z,147357.36
2019-02-25T03:09:19.987Z,147387.56
2019-02-25T03:10:25.951Z,147368.69
2019-02-25T03:11:31.885Z,147356.72
2019-02-25T03:12:37.828Z,147352.34
2019-02-25T03:13:43.778Z,147375.59
2019-02-25T03:14:49.732Z,147325.31
2019-02-25T03:15:55.630Z,147267.50
2019-02-25T03:17:01.571Z,147227.30
2019-02-25T03:18:07.127Z,147209.70
2019-02-25T03:19:13.044Z,147190.22
2019-02-25T03:20:18.595Z,147161.97
2019-02-25T03:21:24.544Z,147162.56
2019-02-25T03:22:30.492Z,147165.72
2019-02-25T03:23:36.425Z,147171.34
2019-02-25T03:24:42.355Z,147187.69
2019-02-25T03:25:47.929Z,147214.08
2019-02-25T03:26:53.875Z,147206.53
2019-02-25T03:27:59.808Z,147210.33
2019-02-25T03:29:05.796Z,147195.27
2019-02-25T03:30:18.845Z,147163.19
2019-02-25T03:31:24.783Z,147155.66
2019-02-25T03:32:30.711Z,147141.86
2019-02-25T03:33:36.725Z,147155.66
2019-02-25T03:34:42.695Z,147143.75
2019-02-25T03:35:48.626Z,147127.42
2019-02-25T03:36:54.545Z,147123.00
2019-02-25T03:38:00.509Z,147116.73
2019-02-25T03:39:05.854Z,147114.84
2019-02-25T03:40:11.892Z,147124.89
2019-02-25T03:41:17.845Z,147145.02
2019-02-25T03:42:23.727Z,147158.19
2019-02-25T03:43:29.639Z,147139.33
2019-02-25T03:44:35.621Z,147102.94
2019-02-25T03:45:41.591Z,147089.09
2019-02-25T03:46:47.491Z,147057.70
2019-02-25T03:47:53.403Z,147051.44
2019-02-25T03:48:59.329Z,147057.06
2019-02-25T03:50:04.598Z,147073.39
2019-02-25T03:51:10.504Z,147113.56
2019-02-25T03:52:16.461Z,147160.08
2019-02-25T03:53:22.421Z,147203.44
2019-02-25T03:54:28.395Z,147201.53
2019-02-25T03:55:34.012Z,147219.77
2019-02-25T03:56:39.974Z,147227.30
2019-02-25T03:57:45.970Z,147209.70
2019-02-25T03:58:51.522Z,147189.58
2019-02-25T03:59:57.498Z,147190.84
2019-02-25T04:01:02.733Z,147203.44
2019-02-25T04:02:08.741Z,147206.53
2019-02-25T04:03:14.693Z,147214.70
2019-02-25T04:04:21.238Z,147243.63
2019-02-25T04:05:26.831Z,147269.41
2019-02-25T04:06:32.403Z,147263.08
2019-02-25T04:07:38.041Z,147270.66
2019-02-25T04:08:43.356Z,147291.37
2019-02-25T04:09:49.341Z,147302.06
2019-02-25T04:10:55.299Z,147260.59
2019-02-25T04:12:00.900Z,147248.64
2019-02-25T04:13:06.817Z,147251.80
2019-02-25T04:14:12.805Z,147253.69
2019-02-25T04:15:17.835Z,147281.94
2019-02-25T04:16:23.788Z,147297.02
2019-02-25T04:17:29.368Z,147294.53
2019-02-25T04:18:35.278Z,147280.67
2019-02-25T04:19:41.219Z,147262.50
2019-02-25T04:20:47.168Z,147259.33
2019-02-25T04:21:53.151Z,147217.23
2019-02-25T04:22:59.094Z,147173.25
2019-02-25T04:24:05.029Z,147153.75
2019-02-25T04:25:10.289Z,147154.39
2019-02-25T04:26:15.907Z,147135.58
2019-02-25T04:27:21.837Z,147163.19
2019-02-25T04:28:27.769Z,147195.27
2019-02-25T04:29:33.720Z,147208.44
2019-02-25T04:30:39.747Z,147182.05
2019-02-25T04:31:45.651Z,147185.84
2019-02-25T04:32:51.608Z,147193.37
2019-02-25T04:33:57.587Z,147187.09
2019-02-25T04:35:03.395Z,147176.41
2019-02-25T04:36:10.487Z,147190.84
2019-02-25T04:37:16.373Z,147211.59
2019-02-25T04:38:22.284Z,147161.97
2019-02-25T04:39:28.265Z,147166.34
2019-02-25T04:40:34.378Z,147192.73
2019-02-25T04:41:40.302Z,147170.14
2019-02-25T04:42:46.271Z,147167.61
2019-02-25T04:43:52.190Z,147146.22
2019-02-25T04:44:58.180Z,147127.42
2019-02-25T04:46:04.146Z,147106.03
2019-02-25T04:47:10.062Z,147098.52
2019-02-25T04:48:16.012Z,147092.23
2019-02-25T04:49:21.960Z,147074.03
2019-02-25T04:50:29.716Z,147073.39
2019-02-25T04:51:36.120Z,147067.13
2019-02-25T04:52:42.079Z,147070.23
2019-02-25T04:53:48.023Z,147063.97
2019-02-25T04:54:53.988Z,147075.28
2019-02-25T04:55:59.952Z,147065.23
2019-02-25T04:57:05.911Z,147076.55
2019-02-25T04:58:11.863Z,147074.03
2019-02-25T04:59:19.083Z,147067.13
2019-02-25T05:00:25.048Z,147067.13
2019-02-25T05:01:31.004Z,147045.13
2019-02-25T05:02:36.981Z,147050.80
2019-02-25T05:03:42.926Z,147047.64
2019-02-25T05:04:48.888Z,147047.02
2019-02-25T05:05:54.836Z,147042.64
2019-02-25T05:07:00.890Z,147042.00
2019-02-25T05:08:06.810Z,147049.53
2019-02-25T05:09:12.740Z,147076.55
2019-02-25T05:10:18.375Z,147136.22
2019-02-25T05:11:25.760Z,147190.22
2019-02-25T05:12:30.203Z,147199.00
2019-02-25T05:13:36.116Z,147185.84
2019-02-25T05:14:42.063Z,147154.39
2019-02-25T05:15:48.007Z,147138.69
2019-02-25T05:16:53.974Z,147148.12
2019-02-25T05:17:59.966Z,147173.87
2019-02-25T05:19:05.884Z,147189.58
2019-02-25T05:20:11.498Z,147175.78
2019-02-25T05:21:17.414Z,147153.17
2019-02-25T05:22:23.013Z,147136.22
2019-02-25T05:23:29.014Z,147118.00
2019-02-25T05:24:35.033Z,147110.47
2019-02-25T05:25:41.522Z,147090.34
2019-02-25T05:26:47.470Z,147105.41
2019-02-25T05:27:53.413Z,147160.08
2019-02-25T05:28:59.389Z,147230.41
2019-02-25T05:30:05.473Z,147264.34
2019-02-25T05:31:11.408Z,147264.34
2019-02-25T05:32:17.333Z,147251.16
2019-02-25T05:33:23.322Z,147229.19
2019-02-25T05:34:29.294Z,147209.70
2019-02-25T05:35:35.218Z,147223.50
2019-02-25T05:36:41.106Z,147204.66
2019-02-25T05:37:47.010Z,147182.05
2019-02-25T05:38:52.934Z,147128.05
2019-02-25T05:39:58.891Z,147097.25
2019-02-25T05:41:04.518Z,147080.28
2019-02-25T05:42:10.439Z,147071.50
2019-02-25T05:43:16.379Z,147067.75
2019-02-25T05:44:22.001Z,147072.75
2019-02-25T05:45:27.960Z,147073.39
2019-02-25T05:46:33.952Z,147060.86
2019-02-25T05:47:39.891Z,147057.70
2019-02-25T05:48:45.803Z,147057.06
2019-02-25T05:49:51.777Z,147068.39
2019-02-25T05:50:57.780Z,147089.09
2019-02-25T05:52:03.733Z,147122.36
2019-02-25T05:53:09.671Z,147105.41
2019-02-25T05:54:15.617Z,147080.28
2019-02-25T05:55:21.600Z,147071.50
2019-02-25T05:56:27.529Z,147048.91
2019-02-25T05:57:33.474Z,147045.13
2019-02-25T05:58:39.424Z,147068.39
2019-02-25T05:59:45.364Z,147111.67
2019-02-25T06:00:51.313Z,147173.87
2019-02-25T06:01:57.247Z,147214.70
2019-02-25T06:03:03.225Z,147191.47
2019-02-25T06:04:09.190Z,147142.48
2019-02-25T06:05:14.806Z,147142.48
2019-02-25T06:06:20.814Z,147131.16
2019-02-25T06:07:26.781Z,147125.53
2019-02-25T06:08:32.715Z,147135.58
2019-02-25T06:09:38.662Z,147141.86
2019-02-25T06:10:44.645Z,147188.94
2019-02-25T06:11:50.584Z,147204.66
2019-02-25T06:12:56.527Z,147215.97
2019-02-25T06:14:02.126Z,147222.88
2019-02-25T06:15:08.743Z,147205.91
2019-02-25T06:16:15.204Z,147197.11
2019-02-25T06:17:21.131Z,147202.16
2019-02-25T06:18:27.092Z,147208.44
2019-02-25T06:19:33.019Z,147206.53
2019-02-25T06:20:38.973Z,147156.92
2019-02-25T06:21:44.906Z,147142.48
2019-02-25T06:22:50.854Z,147166.34
2019-02-25T06:23:56.799Z,147181.41
2019-02-25T06:25:02.770Z,147156.92
2019-02-25T06:26:08.966Z,147154.39
2019-02-25T06:27:14.920Z,147100.41
2019-02-25T06:28:20.846Z,147095.34
2019-02-25T06:29:26.812Z,147090.98
2019-02-25T06:30:32.728Z,147085.34
2019-02-25T06:31:38.293Z,147075.92
2019-02-25T06:32:44.284Z,147083.44
2019-02-25T06:33:50.226Z,147072.13
2019-02-25T06:34:56.157Z,147072.13
2019-02-25T06:36:02.946Z,147053.28
2019-02-25T06:37:09.434Z,147046.38
2019-02-25T06:38:15.403Z,147059.59
2019-02-25T06:39:21.354Z,147067.75
2019-02-25T06:40:27.314Z,147116.09
2019-02-25T06:41:33.292Z,147190.22
2019-02-25T06:42:39.187Z,147229.19
2019-02-25T06:43:45.121Z,147215.34
2019-02-25T06:44:51.049Z,147183.94
2019-02-25T06:45:57.071Z,147161.97
2019-02-25T06:47:03.069Z,147127.42
2019-02-25T06:48:09.000Z,147121.09
2019-02-25T06:49:14.913Z,147119.89
2019-02-25T06:50:20.482Z,147107.31
2019-02-25T06:51:26.453Z,147109.20
2019-02-25T06:52:32.363Z,147109.20
2019-02-25T06:53:38.290Z,147115.47
2019-02-25T06:54:44.246Z,147163.19
2019-02-25T06:55:50.257Z,147165.72
2019-02-25T06:56:56.233Z,147187.69
2019-02-25T06:58:02.159Z,147224.77
2019-02-25T06:59:08.114Z,147235.47
2019-02-25T07:00:16.751Z,147288.22
2019-02-25T07:01:22.724Z,147301.44
2019-02-25T07:02:28.643Z,147346.70
2019-02-25T07:03:34.682Z,147373.06
2019-02-25T07:04:42.788Z,147373.70
2019-02-25T07:05:48.523Z,147366.16
2019-02-25T07:07:04.950Z,147367.42
2019-02-25T07:08:30.440Z,147375.59
2019-02-25T07:09:38.920Z,147380.66
2019-02-25T07:10:46.119Z,147405.80
2019-02-25T07:11:54.228Z,147414.56
2019-02-25T07:13:00.337Z,147418.98
2019-02-25T07:14:15.643Z,147420.87
2019-02-25T07:15:21.314Z,147387.56
2019-02-25T07:16:27.518Z,147366.80
2019-02-25T07:17:34.137Z,147353.61
2019-02-25T07:18:49.795Z,147351.08
2019-02-25T07:21:32.528Z,147368.06
2019-02-25T07:22:42.703Z,147374.33
2019-02-25T07:23:50.975Z,147368.06
2019-02-25T07:24:57.179Z,147389.41
2019-02-25T07:26:08.553Z,147425.25
2019-02-25T07:29:07.042Z,147441.59
2019-02-25T07:30:20.341Z,147440.34
2019-02-25T07:31:26.066Z,147458.58
2019-02-25T07:32:46.629Z,147486.27
2019-02-25T07:34:07.251Z,147502.61
2019-02-25T07:35:15.486Z,147514.58
2019-02-25T07:36:32.967Z,147522.77
2019-02-25T07:39:17.261Z,147520.86
2019-02-25T07:40:26.657Z,147542.86
2019-02-25T07:41:33.770Z,147566.75
2019-02-25T07:42:50.296Z,147613.97
2019-02-25T07:45:41.012Z,147804.66
2019-02-25T07:46:48.175Z,147795.19
2019-02-25T07:48:05.641Z,147809.72
2019-02-25T07:49:11.723Z,147809.08
2019-02-25T07:50:28.175Z,147799.63
2019-02-25T07:51:36.671Z,147813.47
2019-02-25T07:52:57.205Z,147851.91
2019-02-25T07:54:19.684Z,147871.39
2019-02-25T07:55:39.947Z,147881.47
2019-02-25T07:56:46.042Z,147943.22
2019-02-25T07:57:55.394Z,147963.97
2019-02-25T07:59:01.070Z,148011.88
2019-02-25T08:00:07.204Z,148064.78
2019-02-25T08:01:25.584Z,148130.94
2019-02-25T08:02:31.257Z,148126.56
2019-02-25T08:03:37.758Z,148119.00
2019-02-25T08:04:53.403Z,148132.22
2019-02-25T08:06:11.900Z,148129.72
2019-02-25T08:07:15.742Z,148104.52
2019-02-25T08:08:23.172Z,148147.38
2019-02-25T08:09:28.833Z,148179.52
2019-02-25T08:10:46.228Z,148187.72
2019-02-25T08:11:52.298Z,148246.34
2019-02-25T08:13:00.204Z,148277.22
2019-02-25T08:14:09.006Z,148308.75
2019-02-25T08:15:18.556Z,148310.66
2019-02-25T08:18:05.662Z,148253.28
2019-02-25T08:19:27.197Z,148227.41
2019-02-25T08:20:39.732Z,148217.31
2019-02-25T08:21:49.779Z,148270.94
2019-02-25T08:22:56.941Z,148305.63
2019-02-25T08:25:45.102Z,148376.23
2019-02-25T08:26:52.789Z,148378.77
2019-02-25T08:28:00.301Z,148436.81
2019-02-25T08:29:05.635Z,148443.73
2019-02-25T08:30:11.676Z,148420.41
2019-02-25T08:31:17.728Z,148450.72
2019-02-25T08:32:33.422Z,148454.48
2019-02-25T08:33:39.481Z,148483.53
2019-02-25T08:34:50.901Z,148555.45
2019-02-25T08:36:03.410Z,148558.63
2019-02-25T08:37:10.670Z,148547.25
2019-02-25T08:38:16.127Z,148533.38
2019-02-25T08:39:24.670Z,148575.67
2019-02-25T08:40:35.945Z,148641.95
2019-02-25T08:41:46.878Z,148671.02
2019-02-25T08:42:52.658Z,148633.75
2019-02-25T08:43:59.860Z,148648.89
2019-02-25T08:46:44.957Z,148739.81
2019-02-25T08:47:53.117Z,148753.75
2019-02-25T08:49:12.701Z,148739.19
2019-02-25T08:50:18.649Z,148779.64
2019-02-25T08:51:24.225Z,148834.58
2019-02-25T08:52:30.224Z,148879.45
2019-02-25T08:53:36.168Z,148882.59
2019-02-25T08:54:41.718Z,148900.28
2019-02-25T08:55:47.702Z,148921.16
2019-02-25T08:56:53.291Z,148922.44
2019-02-25T08:57:59.249Z,148966.09
2019-02-25T08:59:04.872Z,149013.48
2019-02-25T09:00:11.634Z,149048.27
2019-02-25T09:01:17.576Z,149048.27
2019-02-25T09:02:23.530Z,149115.28
2019-02-25T09:03:29.428Z,149169.69
2019-02-25T09:04:35.833Z,149168.42
2019-02-25T09:05:42.175Z,149222.16
2019-02-25T09:06:48.079Z,149256.95
2019-02-25T09:07:54.097Z,149270.91
2019-02-25T09:08:59.994Z,149269.64
2019-02-25T09:10:05.239Z,149245.61
2019-02-25T09:11:14.153Z,149279.13
2019-02-25T09:12:17.112Z,149296.86
2019-02-25T09:13:23.842Z,149334.80
2019-02-25T09:14:28.993Z,149358.84
2019-02-25T09:15:34.889Z,149397.47
2019-02-25T09:16:40.934Z,149479.13
2019-02-25T09:17:45.427Z,149467.06
2019-02-25T09:18:51.324Z,149455.70
2019-02-25T09:19:57.245Z,149487.98
2019-02-25T09:21:03.156Z,149507.00
2019-02-25T09:22:09.139Z,149546.92
2019-02-25T09:23:15.049Z,149584.94
2019-02-25T09:24:20.937Z,149577.94
2019-02-25T09:25:26.839Z,149574.80
2019-02-25T09:26:32.787Z,149577.94
2019-02-25T09:27:38.364Z,149606.45
2019-02-25T09:28:44.267Z,149595.03
2019-02-25T09:29:50.199Z,149655.86
2019-02-25T09:30:56.135Z,149620.37
2019-02-25T09:32:02.023Z,149631.16
2019-02-25T09:33:07.973Z,149662.19
2019-02-25T09:34:13.884Z,149725.56
2019-02-25T09:35:19.812Z,149764.19
2019-02-25T09:36:25.806Z,149789.53
2019-02-25T09:37:31.668Z,149815.53
2019-02-25T09:38:37.599Z,149769.28
2019-02-25T09:39:43.511Z,149760.41
2019-02-25T09:40:49.402Z,149778.80
2019-02-25T09:41:55.284Z,149787.67
2019-02-25T09:43:01.284Z,149825.03
2019-02-25T09:44:07.225Z,149758.50
2019-02-25T09:45:12.450Z,149783.84
2019-02-25T09:46:18.370Z,149807.28
2019-02-25T09:47:25.096Z,149796.55
2019-02-25T09:48:31.008Z,149856.12
2019-02-25T09:49:36.906Z,149877.03
2019-02-25T09:50:42.814Z,149895.41
2019-02-25T09:51:48.727Z,149889.09
2019-02-25T09:52:54.690Z,149937.25
2019-02-25T09:54:00.615Z,149977.19
2019-02-25T09:55:05.850Z,149951.83
2019-02-25T09:56:11.758Z,149944.86
2019-02-25T09:57:17.656Z,149959.44
2019-02-25T09:58:23.582Z,149898.61
2019-02-25T09:59:29.500Z,149858.00
2019-02-25T10:00:35.362Z,149905.56
2019-02-25T10:01:41.959Z,149931.56
2019-02-25T10:02:47.901Z,149938.53
2019-02-25T10:03:53.841Z,149928.37
2019-02-25T10:04:59.765Z,149914.45
2019-02-25T10:06:05.694Z,149987.34
2019-02-25T10:07:11.687Z,150033.72
2019-02-25T10:08:17.885Z,150027.34
2019-02-25T10:09:29.820Z,150044.47
2019-02-25T10:10:29.871Z,150063.50
2019-02-25T10:11:35.797Z,150041.95
2019-02-25T10:12:41.772Z,150106.00
2019-02-25T10:13:47.704Z,150076.84
2019-02-25T10:14:53.616Z,150051.48
2019-02-25T10:15:59.618Z,150070.47
2019-02-25T10:17:05.565Z,150073.03
2019-02-25T10:18:11.478Z,150129.47
2019-02-25T10:19:17.395Z,150101.59
2019-02-25T10:20:23.297Z,150111.11
2019-02-25T10:21:29.228Z,150118.72
2019-02-25T10:22:35.200Z,150142.19
2019-02-25T10:23:41.194Z,150166.28
2019-02-25T10:24:47.150Z,150276.06
2019-02-25T10:25:53.101Z,150337.02
2019-02-25T10:26:59.021Z,150378.27
2019-02-25T10:28:04.610Z,150348.45
2019-02-25T10:29:11.153Z,150297.67
2019-02-25T10:30:17.763Z,150274.16
2019-02-25T10:31:23.766Z,150278.63
2019-02-25T10:32:30.256Z,150270.38
2019-02-25T10:33:35.714Z,150275.42
2019-02-25T10:34:41.639Z,150258.28
2019-02-25T10:35:47.590Z,150245.62
2019-02-25T10:36:53.548Z,150264.63
2019-02-25T10:38:01.131Z,150316.03
2019-02-25T10:39:05.594Z,150330.67
2019-02-25T10:40:13.234Z,150387.16
2019-02-25T10:41:19.666Z,150399.94
2019-02-25T10:42:24.662Z,150430.39
2019-02-25T10:43:31.868Z,150457.08
2019-02-25T10:44:38.097Z,150465.33
2019-02-25T10:45:43.384Z,150511.03
2019-02-25T10:46:49.102Z,150541.55
2019-02-25T10:47:58.424Z,150550.44
2019-02-25T10:49:10.912Z,150554.22
2019-02-25T10:50:07.454Z,150471.03
2019-02-25T10:51:13.672Z,150464.06
2019-02-25T10:52:18.949Z,150498.34
2019-02-25T10:53:24.898Z,150509.16
2019-02-25T10:54:30.846Z,150537.08
2019-02-25T10:57:12.633Z,150514.86
2019-02-25T10:58:18.553Z,150522.48
2019-02-25T10:59:24.534Z,150572.66
2019-02-25T11:00:29.862Z,150566.95
2019-02-25T11:01:37.533Z,150554.22
2019-02-25T11:02:44.262Z,150565.69
2019-02-25T11:03:48.252Z,150555.50
2019-02-25T11:04:54.014Z,150569.52
2019-02-25T11:06:00.819Z,150618.42
2019-02-25T11:07:05.688Z,150610.81
2019-02-25T11:08:12.048Z,150675.59
2019-02-25T11:09:23.772Z,150602.55
2019-02-25T11:10:30.251Z,150620.98
2019-02-25T11:11:36.016Z,150627.31
2019-02-25T11:12:41.589Z,150607.61
2019-02-25T11:13:47.498Z,150645.12
2019-02-25T11:14:53.396Z,150696.59
2019-02-25T11:15:59.274Z,150658.44
2019-02-25T11:17:04.481Z,150580.92
2019-02-25T11:18:09.755Z,150649.53
2019-02-25T11:19:15.789Z,150722.66
2019-02-25T11:20:21.716Z,150832.67
2019-02-25T11:21:27.615Z,150849.20
2019-02-25T11:22:33.551Z,150823.78
2019-02-25T11:23:39.117Z,150828.84
2019-02-25T11:24:46.826Z,150872.08
2019-02-25T11:25:51.492Z,150743.02
2019-02-25T11:26:58.566Z,150777.34
2019-02-25T11:28:04.931Z,150822.50
2019-02-25T11:29:10.138Z,150943.31
2019-02-25T11:30:14.787Z,150984.66
2019-02-25T11:31:22.788Z,150987.81
2019-02-25T11:32:27.893Z,150995.48
2019-02-25T11:33:34.323Z,151039.97
2019-02-25T11:34:39.796Z,150956.02
2019-02-25T11:35:45.764Z,150949.03
2019-02-25T11:36:50.864Z,150932.50
2019-02-25T11:37:57.046Z,151000.56
2019-02-25T11:39:02.538Z,151079.50
2019-02-25T11:40:13.681Z,151050.81
2019-02-25T11:41:19.285Z,151076.94
2019-02-25T11:42:25.226Z,151162.22
2019-02-25T11:43:31.185Z,151183.23
2019-02-25T11:44:36.773Z,151197.86
2019-02-25T11:45:42.397Z,151189.59
2019-02-25T11:46:47.976Z,151041.25
2019-02-25T11:47:53.871Z,150964.28
2019-02-25T11:48:59.456Z,150959.86
2019-02-25T11:50:04.668Z,151019.66
2019-02-25T11:51:10.578Z,151092.20
2019-02-25T11:52:16.503Z,151174.92
2019-02-25T11:53:22.100Z,151227.11
2019-02-25T11:54:28.027Z,151201.66
2019-02-25T11:55:33.598Z,151277.41
2019-02-25T11:56:39.604Z,151316.27
2019-02-25T11:57:44.823Z,151313.70
2019-02-25T11:58:50.748Z,151328.34
2019-02-25T11:59:56.649Z,151375.53
2019-02-25T12:01:02.215Z,151256.42
2019-02-25T12:02:08.123Z,151100.47
2019-02-25T12:03:14.070Z,151054.64
2019-02-25T12:04:19.741Z,151127.84
2019-02-25T12:05:25.697Z,151171.12
2019-02-25T12:06:31.651Z,151229.03
2019-02-25T12:07:37.561Z,151255.14
2019-02-25T12:08:43.525Z,151258.34
2019-02-25T12:09:49.471Z,151225.25
2019-02-25T12:10:55.424Z,151266.63
2019-02-25T12:12:01.379Z,151288.87
2019-02-25T12:13:07.300Z,151292.72
2019-02-25T12:14:13.360Z,151220.13
2019-02-25T12:15:23.273Z,151237.31
2019-02-25T12:16:29.287Z,151350.06
2019-02-25T12:17:35.267Z,151344.30
2019-02-25T12:18:41.221Z,151368.53
2019-02-25T12:19:47.130Z,151339.81
2019-02-25T12:20:53.124Z,151367.25
2019-02-25T12:21:59.044Z,151370.45
2019-02-25T12:23:04.621Z,151298.44
2019-02-25T12:24:10.621Z,151309.91
2019-02-25T12:25:23.497Z,151276.17
2019-02-25T12:26:29.442Z,151244.30
2019-02-25T12:27:35.380Z,151187.67
2019-02-25T12:28:41.465Z,151160.30
2019-02-25T12:29:47.575Z,151121.50
2019-02-25T12:30:53.498Z,151122.78
2019-02-25T12:31:59.443Z,151173.69
2019-02-25T12:33:05.487Z,151285.09
2019-02-25T12:34:11.459Z,151353.25
2019-02-25T12:35:18.053Z,151332.17
2019-02-25T12:36:24.661Z,151239.88
2019-02-25T12:37:30.608Z,151251.94
2019-02-25T12:38:36.595Z,151330.25
2019-02-25T12:39:42.605Z,151422.05
2019-02-25T12:40:48.400Z,151484.44
2019-02-25T12:41:53.999Z,151466.59
2019-02-25T12:42:59.968Z,151491.44
2019-02-25T12:44:05.980Z,151534.11
2019-02-25T12:45:12.039Z,151469.16
2019-02-25T12:46:18.053Z,151476.16
2019-02-25T12:47:24.023Z,151475.52
2019-02-25T12:48:29.945Z,151464.08
2019-02-25T12:49:36.033Z,151506.77
2019-02-25T12:50:41.982Z,151571.72
2019-02-25T12:51:47.946Z,151570.44
2019-02-25T12:52:53.916Z,151553.88